Time;durP1;ratioP1;P1;durP2;ratioP2;P2;SDS_P1;SDS_P2;PMS_P1;PMS_P2;Temp;Humidity;BMP_temperature;BMP_pressure;BME280_temperature;BME280_humidity;BME280_pressure;Samples;Min_cycle;Max_cycle;Signal;HPM_P1;HPM_P2
2023/01/31 00:00:06;;;;;;;2.92;1.20;;;6.40;99.90;;;6.21;100.00;101899.97;5144949;28;20074;-72
2023/01/31 00:02:38;;;;;;;4.25;1.42;;;6.40;99.90;;;6.23;100.00;101916.50;5147416;28;20054;-74
2023/01/31 00:05:10;;;;;;;7.68;1.70;;;6.40;99.90;;;6.22;100.00;101916.41;5152176;28;20039;-72
2023/01/31 00:07:42;;;;;;;7.93;1.88;;;6.40;99.90;;;6.22;100.00;101919.88;5146285;28;20388;-72
2023/01/31 00:10:15;;;;;;;11.60;2.88;;;6.40;99.90;;;6.21;100.00;101917.19;5144258;28;20054;-71
2023/01/31 00:12:47;;;;;;;11.00;1.85;;;6.40;99.90;;;6.22;100.00;101916.41;5145558;28;20054;-72
2023/01/31 00:15:20;;;;;;;9.82;1.90;;;6.40;99.90;;;6.21;100.00;101917.19;5144739;28;20102;-72
2023/01/31 00:17:52;;;;;;;12.10;1.92;;;6.40;99.90;;;6.22;100.00;101916.41;5144007;28;20062;-72
2023/01/31 00:20:24;;;;;;;10.90;2.35;;;6.40;99.90;;;6.23;100.00;101923.38;5144304;28;20049;-72
2023/01/31 00:22:58;;;;;;;9.98;2.60;;;6.40;99.90;;;6.24;100.00;101913.13;5145135;28;20057;-72
2023/01/31 00:25:30;;;;;;;9.13;2.03;;;6.40;99.90;;;6.22;100.00;101922.47;5145416;28;20054;-72
2023/01/31 00:28:02;;;;;;;12.45;2.47;;;6.40;99.90;;;6.22;100.00;101916.41;5145279;28;20467;-71
2023/01/31 00:30:35;;;;;;;12.35;2.40;;;6.40;99.90;;;6.19;100.00;101917.09;5145110;28;20043;-72
2023/01/31 00:33:08;;;;;;;9.70;2.05;;;6.40;99.90;;;6.20;100.00;101920.59;5145403;28;20047;-71
2023/01/31 00:35:41;;;;;;;7.13;1.92;;;6.40;99.90;;;6.22;100.00;101912.13;5160102;28;20101;-72
2023/01/31 00:38:13;;;;;;;7.32;2.05;;;6.40;99.90;;;6.21;100.00;101915.50;5145334;28;20477;-71
2023/01/31 00:40:52;;;;;;;8.55;1.85;;;6.40;99.90;;;6.24;100.00;101920.00;5159753;28;20137;-71
2023/01/31 00:43:24;;;;;;;8.55;2.13;;;6.40;99.90;;;6.23;100.00;101913.91;5143305;28;20042;-71
2023/01/31 00:45:59;;;;;;;17.67;3.17;;;6.40;99.90;;;6.26;100.00;101913.25;5145412;28;20057;-71
2023/01/31 00:48:32;;;;;;;9.15;2.05;;;6.40;99.90;;;6.22;100.00;101912.13;5144755;28;20053;-71
2023/01/31 00:51:05;;;;;;;8.27;1.88;;;6.40;99.90;;;6.22;100.00;101901.75;5145010;28;20121;-71
2023/01/31 00:53:37;;;;;;;9.07;1.75;;;6.40;99.90;;;6.25;100.00;101893.31;5143423;28;20039;-72
2023/01/31 00:56:12;;;;;;;7.80;1.80;;;6.40;99.90;;;6.28;100.00;101900.41;5144896;28;20047;-72
2023/01/31 00:58:44;;;;;;;6.95;1.88;;;6.50;99.90;;;6.30;100.00;101904.88;5144700;28;20384;-72
2023/01/31 01:01:21;;;;;;;7.97;1.70;;;6.50;99.90;;;6.31;100.00;101900.59;5159381;28;20043;-71
2023/01/31 01:03:58;;;;;;;5.75;1.27;;;6.50;99.90;;;6.33;100.00;101907.69;5144832;28;20050;-71
2023/01/31 01:06:30;;;;;;;7.45;1.70;;;6.50;99.90;;;6.34;100.00;101906.00;5144848;28;20039;-71
2023/01/31 01:09:02;;;;;;;4.93;1.80;;;6.50;99.90;;;6.32;100.00;101908.47;5159198;28;20463;-71
2023/01/31 01:11:35;;;;;;;7.53;1.75;;;6.50;99.90;;;6.33;100.00;101910.28;5143998;28;20495;-71
2023/01/31 01:14:07;;;;;;;11.88;2.05;;;6.50;99.90;;;6.31;100.00;101917.03;5143162;28;20074;-71
2023/01/31 01:16:41;;;;;;;9.38;1.98;;;6.50;99.90;;;6.29;100.00;101920.31;5143331;28;20090;-71
2023/01/31 01:19:19;;;;;;;8.63;1.90;;;6.50;99.90;;;6.28;100.00;101922.00;5143152;28;20085;-71
2023/01/31 01:21:55;;;;;;;6.28;2.00;;;6.50;99.90;;;6.27;100.00;101928.00;5152175;28;20779;-71
2023/01/31 01:24:28;;;;;;;7.88;1.70;;;6.40;99.90;;;6.25;100.00;101922.69;5141023;28;20057;-71
2023/01/31 01:27:03;;;;;;;7.75;1.45;;;6.40;99.90;;;6.22;100.00;101917.31;5175690;28;20050;-71
2023/01/31 01:29:37;;;;;;;6.68;1.75;;;6.40;99.90;;;6.18;100.00;101925.63;5143789;28;20054;-71
2023/01/31 01:32:11;;;;;;;5.63;1.33;;;6.40;99.90;;;6.17;100.00;101934.19;5142860;28;20114;-71
2023/01/31 01:34:43;;;;;;;6.93;1.50;;;6.40;99.90;;;6.17;100.00;101915.19;5142802;28;20137;-71
2023/01/31 01:37:19;;;;;;;3.47;1.45;;;6.30;99.90;;;6.15;100.00;101916.78;5144173;28;20055;-71
2023/01/31 01:39:54;;;;;;;3.97;1.00;;;6.30;99.90;;;6.13;100.00;101913.16;5142352;28;20484;-71
2023/01/31 01:42:27;;;;;;;4.78;1.40;;;6.30;99.90;;;6.13;100.00;101921.84;5142556;28;20042;-71
2023/01/31 01:45:01;;;;;;;3.17;0.80;;;6.30;99.90;;;6.10;100.00;101921.63;5142329;28;20058;-72
2023/01/31 01:47:43;;;;;;;3.40;1.13;;;6.30;99.90;;;6.10;100.00;101931.97;5142525;28;20043;-71
2023/01/31 01:50:21;;;;;;;6.10;1.33;;;6.30;99.90;;;6.09;100.00;101930.19;5143415;28;20070;-72
2023/01/31 01:53:01;;;;;;;4.63;1.20;;;6.30;99.90;;;6.10;100.00;101925.91;5144241;28;20043;-72
2023/01/31 01:55:40;;;;;;;7.97;1.27;;;6.30;99.90;;;6.08;100.00;101923.22;5143778;28;20042;-72
2023/01/31 01:58:19;;;;;;;7.85;1.52;;;6.30;99.90;;;6.09;100.00;101929.28;5142575;28;20070;-72
2023/01/31 02:00:53;;;;;;;3.97;1.23;;;6.20;99.90;;;6.07;100.00;101911.06;5142907;28;20467;-72
2023/01/31 02:03:27;;;;;;;4.15;1.50;;;6.20;99.90;;;6.06;100.00;101917.00;5142671;28;20054;-72
2023/01/31 02:06:02;;;;;;;7.57;1.40;;;6.20;99.90;;;6.05;100.00;101912.63;5143067;28;20073;-72
2023/01/31 02:08:38;;;;;;;5.40;1.40;;;6.20;99.90;;;6.05;100.00;101912.63;5143654;28;20074;-72
2023/01/31 02:11:15;;;;;;;;;;;6.20;99.90;;;6.04;100.00;101902.16;5142092;28;20050;-72
2023/01/31 02:13:50;;;;;;;5.25;1.10;;;6.20;99.90;;;6.04;100.00;101905.66;5142106;28;20391;-72
2023/01/31 02:16:22;;;;;;;5.05;1.10;;;6.20;99.90;;;6.02;100.00;101907.25;5143409;28;20448;-72
2023/01/31 02:18:58;;;;;;;3.42;1.02;;;6.20;99.90;;;6.00;100.00;101903.66;5141853;28;20045;-71
2023/01/31 02:22:10;;;;;;;2.83;0.90;;;6.20;99.90;;;5.99;100.00;101910.50;5142291;28;20050;-72
2023/01/31 02:25:28;;;;;;;2.42;0.82;;;6.10;99.90;;;5.98;100.00;101911.28;5141956;28;20046;-72
2023/01/31 02:28:45;;;;;;;5.68;1.08;;;6.10;99.90;;;5.97;100.00;101913.78;5110816;28;20086;-73
2023/01/31 02:31:59;;;;;;;2.67;1.10;;;6.10;99.90;;;5.96;100.00;101919.75;5141888;28;20053;-72
2023/01/31 02:34:41;;;;;;;6.78;1.15;;;6.10;99.90;;;5.95;100.00;101900.72;5143095;28;20046;-72
2023/01/31 02:37:25;;;;;;;5.88;1.58;;;6.10;99.90;;;5.93;100.00;101901.41;5143275;28;20454;-72
2023/01/31 02:40:08;;;;;;;4.47;1.13;;;6.10;99.90;;;5.92;100.00;101902.19;5142943;28;20078;-72
2023/01/31 02:42:51;;;;;;;5.30;1.20;;;6.10;99.90;;;5.92;100.00;101894.44;5141301;28;20093;-72
2023/01/31 02:45:33;;;;;;;6.50;1.80;;;6.10;99.90;;;5.86;100.00;101891.38;5143049;28;20050;-71
2023/01/31 02:48:17;;;;;;;5.75;1.30;;;6.00;99.90;;;5.84;100.00;101896.44;5141681;28;20046;-72
2023/01/31 02:51:05;;;;;;;5.28;1.40;;;6.00;99.90;;;5.82;100.00;101890.28;5141223;28;20043;-72
2023/01/31 02:53:45;;;;;;;6.05;1.40;;;6.00;99.90;;;5.79;100.00;101891.72;5141676;28;20057;-71
2023/01/31 02:56:23;;;;;;;7.50;1.55;;;6.00;99.90;;;5.78;100.00;101895.09;5141803;28;20051;-72
2023/01/31 02:59:02;;;;;;;4.72;1.13;;;5.90;99.90;;;5.77;100.00;101901.06;5140830;28;20054;-72
2023/01/31 03:01:38;;;;;;;6.45;1.20;;;5.90;99.90;;;5.77;100.00;101903.66;5141573;28;20093;-72
2023/01/31 03:04:13;;;;;;;3.25;1.02;;;5.90;99.90;;;5.74;100.00;101904.34;5141253;28;20458;-72
2023/01/31 03:06:59;;;;;;;3.45;1.17;;;5.90;99.90;;;5.75;100.00;101915.59;5141743;28;20411;-72
2023/01/31 03:09:40;;;;;;;4.90;1.10;;;5.90;99.90;;;5.73;100.00;101913.78;5141007;28;20050;-72
2023/01/31 03:12:48;;;;;;;2.65;0.93;;;5.90;99.90;;;5.72;100.00;101917.16;5174037;28;20034;-71
2023/01/31 03:18:52;;;;;;;2.63;0.93;;;5.90;99.90;;;5.66;100.00;101911.53;5141519;28;20051;-72
2023/01/31 03:21:29;;;;;;;3.40;1.10;;;5.80;99.90;;;5.61;100.00;101915.50;5141317;28;20051;-72
2023/01/31 03:24:06;;;;;;;4.30;1.20;;;5.80;99.90;;;5.57;100.00;101916.06;5143664;28;20146;-72
2023/01/31 03:26:39;;;;;;;4.70;1.10;;;5.80;99.90;;;5.52;100.00;101911.34;5145181;28;20527;-72
2023/01/31 03:29:16;;;;;;;3.88;0.80;;;5.70;99.90;;;5.48;100.00;101910.22;5144951;28;20332;-72
2023/01/31 03:31:57;;;;;;;4.50;1.00;;;5.70;99.90;;;5.44;100.00;101913.38;5177655;28;20097;-72
2023/01/31 03:34:29;;;;;;;1.85;0.88;;;5.60;99.90;;;5.39;100.00;101901.78;5145299;28;20453;-72
2023/01/31 03:37:10;;;;;;;5.22;1.23;;;5.60;99.90;;;5.35;100.00;101899.78;5144872;28;20047;-72
2023/01/31 03:40:04;;;;;;;;;;;5.50;99.90;;;5.31;100.00;101900.34;5146570;28;20527;-71
2023/01/31 03:42:48;;;;;;;3.50;0.80;;;5.50;99.90;;;5.26;100.00;101897.41;5161257;28;19922;-72
2023/01/31 03:45:33;;;;;;;1.67;0.70;;;5.50;99.90;;;5.23;100.00;101901.47;5145155;28;20083;-72
2023/01/31 03:48:13;;;;;;;2.65;1.00;;;5.40;99.90;;;5.20;100.00;101896.06;5144975;28;20142;-72
2023/01/31 03:50:52;;;;;;;3.60;0.90;;;5.40;99.90;;;5.15;100.00;101887.94;5144469;28;20066;-72
2023/01/31 03:53:32;;;;;;;2.08;0.95;;;5.40;99.90;;;5.13;100.00;101895.59;5140933;28;20047;-72
2023/01/31 03:56:13;;;;;;;4.47;1.27;;;5.40;99.90;;;5.11;100.00;101897.19;5140773;28;20062;-72
2023/01/31 03:58:52;;;;;;;3.70;1.02;;;5.30;99.90;;;5.10;100.00;101900.56;5124590;28;20481;-72
2023/01/31 04:01:29;;;;;;;2.72;1.30;;;5.30;99.90;;;5.09;100.00;101897.88;5125931;28;20717;-72
2023/01/31 04:04:07;;;;;;;4.88;1.20;;;5.30;99.90;;;5.10;100.00;101897.97;5126227;29;20055;-72
2023/01/31 04:06:40;;;;;;;1.63;0.75;;;5.30;99.90;;;5.11;100.00;101896.28;5124629;29;20102;-72
2023/01/31 04:09:14;;;;;;;2.00;0.93;;;5.30;99.90;;;5.10;100.00;101892.81;5124400;28;20075;-72
2023/01/31 04:11:51;;;;;;;4.93;0.93;;;5.30;99.90;;;5.08;100.00;101902.09;5140684;28;20051;-72
2023/01/31 04:14:23;;;;;;;3.65;0.95;;;5.30;99.90;;;5.05;100.00;101888.97;5125837;29;20067;-72
2023/01/31 04:16:55;;;;;;;5.18;1.05;;;5.30;99.90;;;5.03;100.00;101876.72;5124520;29;20047;-72
2023/01/31 04:19:28;;;;;;;3.13;0.95;;;5.20;99.90;;;4.99;100.00;101885.03;5124135;28;20421;-72
2023/01/31 04:22:00;;;;;;;3.78;1.20;;;5.20;99.90;;;4.96;100.00;101874.47;5125602;29;20412;-72
2023/01/31 04:24:32;;;;;;;4.78;1.88;;;5.20;99.90;;;4.94;100.00;101889.84;5125550;29;20502;-72
2023/01/31 04:27:06;;;;;;;4.88;0.90;;;5.10;99.90;;;4.92;100.00;101881.09;5125135;29;20039;-72
2023/01/31 04:29:39;;;;;;;4.32;1.63;;;5.10;99.90;;;4.91;100.00;101879.28;5125182;28;20061;-72
2023/01/31 04:32:12;;;;;;;3.25;0.90;;;5.10;99.90;;;4.88;100.00;101879.06;5140103;28;20142;-72
2023/01/31 04:34:44;;;;;;;5.50;0.98;;;5.10;99.90;;;4.86;100.00;101876.34;5124920;28;20059;-72
2023/01/31 04:37:17;;;;;;;4.68;1.50;;;5.00;99.90;;;4.85;100.00;101876.25;5125394;29;20043;-72
2023/01/31 04:39:49;;;;;;;2.35;0.90;;;5.10;99.90;;;4.84;100.00;101869.28;5164370;23;20047;-84
2023/01/31 04:42:23;;;;;;;8.43;1.10;;;5.10;99.90;;;4.83;100.00;101868.41;5152048;28;20051;-84
2023/01/31 04:44:55;;;;;;;6.38;1.35;;;5.00;99.90;;;4.83;100.00;101867.50;5159538;28;20450;-82
2023/01/31 04:47:27;;;;;;;6.15;1.35;;;5.10;99.90;;;4.80;100.00;101868.16;5159200;28;20114;-83
2023/01/31 04:49:59;;;;;;;6.50;1.17;;;5.00;99.90;;;4.79;100.00;101861.19;5143291;29;20054;-81
2023/01/31 04:52:31;;;;;;;3.55;1.23;;;5.00;99.90;;;4.77;100.00;101857.59;5143413;29;20042;-82
2023/01/31 04:55:03;;;;;;;5.55;1.42;;;5.00;99.90;;;4.75;100.00;101866.00;5141657;29;20114;-82
2023/01/31 04:57:37;;;;;;;3.65;0.95;;;4.90;99.90;;;4.73;100.00;101860.72;5157912;28;20055;-82
2023/01/31 05:00:11;;;;;;;2.53;0.73;;;4.90;99.90;;;4.70;100.00;101854.44;5156746;28;20053;-82
2023/01/31 05:02:43;;;;;;;2.53;0.88;;;4.90;99.90;;;4.67;100.00;101851.63;5157336;28;20055;-83
2023/01/31 05:05:15;;;;;;;2.00;0.77;;;4.90;99.90;;;4.62;100.00;101847.00;5140480;28;20051;-84
2023/01/31 05:07:47;;;;;;;3.03;1.13;;;4.80;99.90;;;4.58;100.00;101850.16;5141394;29;20050;-83
2023/01/31 05:10:19;;;;;;;1.33;0.65;;;4.80;99.90;;;4.51;100.00;101847.88;5140866;28;20130;-87
2023/01/31 05:12:52;;;;;;;4.47;1.08;;;4.70;99.90;;;4.47;100.00;101850.13;5140336;28;20059;-84
2023/01/31 05:15:25;;;;;;;3.83;0.90;;;4.70;99.90;;;4.41;100.00;101855.72;5140874;29;20047;-82
2023/01/31 05:18:01;;;;;;;1.58;0.90;;;4.60;99.90;;;4.36;100.00;101854.44;5155415;28;20047;-82
2023/01/31 05:20:38;;;;;;;3.33;0.93;;;4.60;99.90;;;4.36;100.00;101857.94;5139436;29;20077;-84
2023/01/31 05:23:12;;;;;;;0.85;0.63;;;4.60;99.90;;;4.35;100.00;101844.91;5155599;28;20047;-82
2023/01/31 05:25:45;;;;;;;2.05;0.88;;;4.60;99.90;;;4.30;100.00;101847.16;5139388;28;20063;-83
2023/01/31 05:28:18;;;;;;;2.72;0.85;;;4.50;99.90;;;4.27;100.00;101849.50;5139627;29;20047;-82
2023/01/31 05:30:50;;;;;;;3.15;1.05;;;4.50;99.90;;;4.22;100.00;101843.06;5139111;29;20067;-82
2023/01/31 05:33:22;;;;;;;7.75;1.08;;;4.40;99.90;;;4.16;100.00;101844.28;5154959;28;20054;-82
2023/01/31 05:35:54;;;;;;;4.00;1.13;;;4.40;99.90;;;4.11;100.00;101840.44;5154767;28;20051;-82
2023/01/31 05:38:26;;;;;;;3.55;0.90;;;4.30;99.90;;;4.05;100.00;101834.06;5139439;29;20424;-82
2023/01/31 05:40:58;;;;;;;4.15;1.02;;;4.30;99.90;;;4.01;100.00;101839.75;5139675;29;20050;-84
2023/01/31 05:43:32;;;;;;;6.40;1.38;;;4.20;99.90;;;3.97;100.00;101839.38;5140699;29;20049;-82
2023/01/31 05:46:04;;;;;;;5.03;1.17;;;4.20;99.90;;;3.92;100.00;101840.72;5139379;28;20062;-83
2023/01/31 05:48:36;;;;;;;2.15;1.08;;;4.20;99.90;;;3.96;100.00;101853.97;5140692;28;20051;-82
2023/01/31 05:51:08;;;;;;;3.10;1.15;;;4.20;99.90;;;3.96;100.00;101847.91;5140617;29;20054;-82
2023/01/31 05:53:40;;;;;;;2.20;0.93;;;4.20;99.90;;;4.00;100.00;101853.44;5141313;29;20047;-82
2023/01/31 05:56:12;;;;;;;2.80;1.13;;;4.20;99.90;;;4.02;100.00;101844.13;5141681;29;20050;-80
2023/01/31 05:58:49;;;;;;;1.98;1.33;;;4.20;99.90;;;4.07;100.00;101847.97;5153157;28;20074;-84
2023/01/31 06:01:24;;;;;;;3.22;1.20;;;4.20;99.90;;;4.11;100.00;101850.75;5150418;28;20051;-82
2023/01/31 06:03:57;;;;;;;3.58;1.35;;;4.30;99.90;;;4.13;100.00;101851.81;5148934;28;20051;-81
2023/01/31 06:06:29;;;;;;;3.38;1.30;;;4.30;99.90;;;4.18;100.00;101853.06;5147605;28;20052;-81
2023/01/31 06:09:01;;;;;;;3.08;1.00;;;4.40;99.90;;;4.20;100.00;101843.75;5129224;29;20053;-82
2023/01/31 06:11:33;;;;;;;3.40;1.25;;;4.40;99.90;;;4.23;100.00;101849.13;5134443;28;20482;-81
2023/01/31 06:14:08;;;;;;;6.38;1.90;;;4.40;99.90;;;4.24;100.00;101838.06;5137447;29;20055;-82
2023/01/31 06:16:40;;;;;;;7.50;1.80;;;4.40;99.90;;;4.25;100.00;101837.28;5153674;28;20055;-83
2023/01/31 06:19:12;;;;;;;7.05;1.50;;;4.40;99.90;;;4.24;100.00;101840.63;5138003;29;20047;-82
2023/01/31 06:21:44;;;;;;;4.32;1.65;;;4.40;99.90;;;4.26;100.00;101839.06;5136962;29;20043;-81
2023/01/31 06:24:16;;;;;;;3.83;1.60;;;4.50;99.90;;;4.25;100.00;101842.44;5137910;29;20039;-82
2023/01/31 06:26:48;;;;;;;4.10;1.25;;;4.50;99.90;;;4.23;100.00;101831.06;5137605;29;20043;-82
2023/01/31 06:29:21;;;;;;;5.30;1.90;;;4.40;99.90;;;4.24;100.00;101831.22;5151602;28;20055;-82
2023/01/31 06:31:53;;;;;;;3.72;1.60;;;4.40;99.90;;;4.24;100.00;101831.22;5137941;29;20046;-82
2023/01/31 06:34:25;;;;;;;5.20;2.30;;;4.40;99.90;;;4.24;100.00;101825.16;5137469;29;20050;-82
2023/01/31 06:36:58;;;;;;;4.38;1.50;;;4.40;99.90;;;4.23;100.00;101818.16;5152608;28;20062;-82
2023/01/31 06:39:30;;;;;;;6.65;2.33;;;4.40;99.90;;;4.22;100.00;101817.25;5152872;28;20051;-82
2023/01/31 06:42:02;;;;;;;6.15;2.22;;;4.50;99.90;;;4.23;100.00;101816.47;5137207;29;20058;-83
2023/01/31 06:44:36;;;;;;;9.68;3.03;;;4.40;99.90;;;4.26;100.00;101818.41;5138427;29;20047;-84
2023/01/31 06:47:08;;;;;;;7.03;2.30;;;4.50;99.90;;;4.29;100.00;101813.47;5153911;28;20074;-82
2023/01/31 06:49:40;;;;;;;6.05;2.25;;;4.50;99.90;;;4.33;100.00;101807.75;5153481;28;20063;-82
2023/01/31 06:52:12;;;;;;;4.60;2.10;;;4.60;99.90;;;4.38;100.00;101802.97;5140098;29;20043;-83
2023/01/31 06:54:44;;;;;;;9.23;3.28;;;4.50;99.90;;;4.42;100.00;101810.13;5137740;29;20061;-83
2023/01/31 06:57:16;;;;;;;7.45;2.53;;;4.60;99.90;;;4.47;100.00;101809.69;5151876;28;20047;-82
2023/01/31 06:59:53;;;;;;;7.85;2.58;;;4.60;99.90;;;4.49;100.00;101818.44;5137522;28;20047;-82
2023/01/31 07:02:26;;;;;;;8.05;2.40;;;4.70;99.90;;;4.56;100.00;101819.81;5140297;28;20563;-82
2023/01/31 07:04:58;;;;;;;11.73;3.30;;;4.80;99.90;;;4.58;100.00;101814.00;5143260;29;20082;-85
2023/01/31 07:07:30;;;;;;;5.88;2.30;;;4.80;99.90;;;4.63;100.00;101838.50;5159641;28;20055;-82
2023/01/31 07:10:02;;;;;;;6.43;2.20;;;4.80;99.90;;;4.68;100.00;101830.16;5143836;29;20043;-82
2023/01/31 07:12:34;;;;;;;5.60;1.90;;;4.90;99.90;;;4.73;100.00;101828.84;5144855;29;20051;-82
2023/01/31 07:15:10;;;;;;;4.38;1.98;;;4.90;99.90;;;4.76;100.00;101829.03;5158261;28;20506;-81
2023/01/31 07:17:43;;;;;;;4.95;2.00;;;5.00;99.90;;;4.80;100.00;101825.91;5143470;29;20455;-81
2023/01/31 07:20:15;;;;;;;5.45;1.85;;;5.00;99.90;;;4.84;100.00;101822.78;5143336;29;20035;-82
2023/01/31 07:22:55;;;;;;;7.32;2.20;;;5.00;99.90;;;4.88;100.00;101823.09;5159140;28;20047;-81
2023/01/31 07:25:30;;;;;;;6.68;2.17;;;5.10;99.90;;;4.92;100.00;101828.50;5143605;29;20055;-81
2023/01/31 07:28:03;;;;;;;5.05;2.08;;;5.10;99.90;;;4.95;100.00;101826.13;5159473;28;20046;-81
2023/01/31 07:30:36;;;;;;;6.97;2.00;;;5.10;99.90;;;4.99;100.00;101823.91;5143352;29;20046;-82
2023/01/31 07:33:08;;;;;;;6.13;1.95;;;5.20;99.90;;;5.03;100.00;101823.34;5144844;28;20066;-82
2023/01/31 07:35:42;;;;;;;6.78;2.40;;;5.20;99.90;;;5.04;100.00;101830.31;5147626;29;20051;-80
2023/01/31 07:38:14;;;;;;;5.85;2.20;;;5.20;99.90;;;5.07;100.00;101837.38;5164267;28;20118;-83
2023/01/31 07:40:46;;;;;;;7.70;2.33;;;5.20;99.90;;;5.10;100.00;101837.63;5161420;28;20532;-81
2023/01/31 07:43:19;;;;;;;4.93;2.10;;;5.30;99.90;;;5.14;100.00;101839.63;5140764;29;20054;-82
2023/01/31 07:45:53;;;;;;;4.15;1.63;;;5.30;99.90;;;5.17;100.00;101839.88;5156653;28;20067;-80
2023/01/31 07:48:25;;;;;;;4.70;1.60;;;5.40;99.90;;;5.18;100.00;101832.22;5141869;29;20054;-81
2023/01/31 07:51:01;;;;;;;4.00;1.85;;;5.40;99.90;;;5.26;100.00;101834.44;5142442;29;20067;-81
2023/01/31 07:53:40;;;;;;;2.85;1.77;;;5.40;99.90;;;5.29;100.00;101817.50;5140895;29;20425;-83
2023/01/31 07:56:15;;;;;;;7.55;2.40;;;5.40;99.90;;;5.33;100.00;101818.59;5142330;28;20051;-80
2023/01/31 07:58:49;;;;;;;7.85;2.42;;;5.50;99.90;;;5.36;100.00;101806.81;5156687;28;20039;-85
2023/01/31 08:04:19;;;;;;;10.70;3.00;;;5.60;99.90;;;5.44;100.00;101799.59;5123841;28;20057;-87
2023/01/31 08:06:55;;;;;;;7.10;2.90;;;5.60;99.90;;;5.45;100.00;101791.91;5159326;28;20486;-84
2023/01/31 08:09:27;;;;;;;7.65;3.08;;;5.60;99.90;;;5.49;100.00;101787.00;5148581;28;20047;-84
2023/01/31 08:11:59;;;;;;;12.32;3.15;;;5.60;99.90;;;5.54;100.00;101791.69;5145553;28;20145;-85
2023/01/31 08:14:31;;;;;;;8.20;2.28;;;5.70;99.90;;;5.56;100.00;101787.53;5147823;28;20046;-86
2023/01/31 08:17:07;;;;;;;8.95;2.47;;;5.70;99.90;;;5.67;100.00;101788.25;5174356;28;20474;-88
2023/01/31 08:19:39;;;;;;;6.72;2.33;;;5.80;99.90;;;5.88;100.00;101792.38;5145566;28;20051;-89
2023/01/31 08:22:11;;;;;;;5.85;1.63;;;6.00;99.90;;;6.01;100.00;101796.72;5149452;28;20047;-86
2023/01/31 08:24:43;;;;;;;4.53;1.75;;;6.10;99.90;;;6.14;100.00;101799.38;5151601;28;20043;-87
2023/01/31 08:27:15;;;;;;;6.70;2.50;;;6.30;99.90;;;6.19;100.00;101816.13;5160752;28;20055;-87
2023/01/31 08:29:47;;;;;;;9.38;3.03;;;6.30;99.90;;;6.19;100.00;101808.34;5135940;29;20058;-85
2023/01/31 08:32:21;;;;;;;6.00;1.85;;;6.40;99.90;;;6.19;100.00;101808.34;5151950;28;20480;-87
2023/01/31 08:34:53;;;;;;;5.10;1.90;;;6.40;99.90;;;6.21;100.00;101805.88;5151451;28;20069;-89
2023/01/31 08:37:25;;;;;;;7.82;2.08;;;6.40;99.90;;;6.18;100.00;101809.13;5150702;28;20046;-87
2023/01/31 08:39:57;;;;;;;6.97;2.25;;;6.30;99.90;;;6.22;100.00;101802.47;5142180;28;20138;-88
2023/01/31 08:42:29;;;;;;;5.00;1.70;;;6.30;99.90;;;6.22;100.00;101792.13;5135220;29;20065;-86
2023/01/31 08:45:01;;;;;;;4.93;1.58;;;6.30;99.90;;;6.23;100.00;101792.22;5154374;28;20043;-85
2023/01/31 08:47:35;;;;;;;4.22;1.70;;;6.40;99.90;;;6.22;100.00;101793.00;5139877;29;20428;-86
2023/01/31 08:50:08;;;;;;;5.75;2.03;;;6.40;99.90;;;6.24;100.00;101799.19;5138502;29;20043;-83
2023/01/31 08:52:40;;;;;;;5.55;1.63;;;6.40;99.90;;;6.25;100.00;101798.38;5141103;29;20055;-83
2023/01/31 08:55:12;;;;;;;7.30;1.75;;;6.40;99.90;;;6.27;100.00;101782.97;5158772;28;20042;-85
2023/01/31 08:57:45;;;;;;;8.10;1.83;;;6.40;99.90;;;6.24;100.00;101796.59;5137441;29;20051;-83
2023/01/31 09:00:20;;;;;;;6.10;1.85;;;6.40;99.90;;;6.28;100.00;101791.63;5135415;29;20047;-83
2023/01/31 09:02:54;;;;;;;6.65;1.73;;;6.40;99.90;;;6.28;100.00;101778.69;5131831;29;20043;-84
2023/01/31 09:05:29;;;;;;;9.95;1.92;;;6.40;99.90;;;6.33;100.00;101790.25;5129377;28;20070;-85
2023/01/31 09:08:01;;;;;;;7.18;1.95;;;6.40;99.90;;;6.28;100.00;101781.28;5130303;29;20042;-86
2023/01/31 09:10:33;;;;;;;7.55;1.50;;;6.40;99.90;;;6.27;100.00;101795.03;5139821;28;20399;-83
2023/01/31 09:13:05;;;;;;;7.57;1.98;;;6.40;99.90;;;6.32;100.00;101783.25;5133856;28;20057;-82
2023/01/31 09:15:37;;;;;;;6.70;1.80;;;6.40;99.90;;;6.31;100.00;101782.38;5144964;28;20047;-84
2023/01/31 09:18:11;;;;;;;5.82;1.83;;;6.40;99.90;;;6.32;100.00;101785.84;5152062;28;20429;-83
2023/01/31 09:20:43;;;;;;;4.60;1.50;;;6.50;99.90;;;6.34;100.00;101779.09;5136306;28;20055;-85
2023/01/31 09:23:15;;;;;;;7.47;1.98;;;6.50;99.90;;;6.38;100.00;101775.91;5136550;28;20055;-84
2023/01/31 09:25:53;;;;;;;7.60;2.08;;;6.50;99.90;;;6.37;100.00;101761.16;5128259;29;20090;-83
2023/01/31 09:28:26;;;;;;;7.30;2.40;;;6.50;99.90;;;6.44;100.00;101778.91;5131561;29;20047;-86
2023/01/31 09:31:03;;;;;;;8.75;1.73;;;6.50;99.90;;;6.42;100.00;101775.34;5131039;29;20051;-83
2023/01/31 09:33:37;;;;;;;5.18;1.50;;;6.50;99.90;;;6.39;100.00;101765.69;5122735;29;20067;-84
2023/01/31 09:36:11;;;;;;;6.30;1.75;;;6.50;99.90;;;6.43;100.00;101757.28;5147102;28;20051;-83
2023/01/31 09:38:44;;;;;;;4.88;1.73;;;6.60;99.90;;;6.44;100.00;101753.00;5135075;28;20063;-84
2023/01/31 09:41:26;;;;;;;9.85;1.50;;;6.60;99.90;;;6.43;100.00;101752.13;5146107;28;20109;-84
2023/01/31 09:44:03;;;;;;;7.68;1.85;;;6.60;99.90;;;6.45;100.00;101749.63;5147646;28;20048;-87
2023/01/31 09:46:38;;;;;;;6.82;1.60;;;6.60;99.90;;;6.50;100.00;101743.06;5146742;28;20054;-84
2023/01/31 09:49:19;;;;;;;2.95;1.35;;;6.60;99.90;;;6.53;100.00;101746.75;5154618;28;20043;-85
2023/01/31 09:51:58;;;;;;;4.57;1.60;;;6.60;99.90;;;6.56;100.00;101751.22;5160069;28;20039;-84
2023/01/31 09:54:36;;;;;;;5.28;1.48;;;6.70;99.90;;;6.58;100.00;101746.16;5139967;28;20047;-85
2023/01/31 09:57:27;;;;;;;5.30;1.50;;;6.70;99.90;;;6.61;100.00;101739.50;5145544;28;20044;-85
2023/01/31 10:00:19;;;;;;;5.10;1.20;;;6.70;99.90;;;6.65;100.00;101744.09;5135057;28;20038;-84
2023/01/31 10:03:27;;;;;;;7.70;1.50;;;6.80;99.90;;;6.68;100.00;101749.47;5158279;28;20513;-85
2023/01/31 10:06:11;;;;;;;5.13;1.27;;;6.80;99.90;;;6.71;100.00;101726.31;5099969;29;20051;-86
2023/01/31 10:08:51;;;;;;;3.53;1.05;;;6.80;99.90;;;6.75;100.00;101725.72;5138379;28;20119;-86
2023/01/31 10:11:32;;;;;;;6.53;1.70;;;6.90;99.90;;;6.79;100.00;101727.72;5111941;29;20047;-86
2023/01/31 10:14:18;;;;;;;2.85;1.30;;;6.90;99.90;;;6.84;100.00;101730.59;5132763;28;20518;-84
2023/01/31 10:17:05;;;;;;;5.45;1.60;;;6.90;99.90;;;6.89;100.00;101728.31;5141734;28;20042;-85
2023/01/31 10:19:45;;;;;;;5.57;1.33;;;7.00;99.90;;;6.91;100.00;101731.88;5150545;28;20058;-85
2023/01/31 10:22:25;;;;;;;4.10;1.27;;;7.00;99.90;;;6.93;100.00;101740.69;5151233;28;20053;-85
2023/01/31 10:25:02;;;;;;;9.85;1.50;;;7.00;99.90;;;6.94;100.00;101729.50;5140548;28;20050;-86
2023/01/31 10:27:44;;;;;;;7.57;1.83;;;7.00;99.90;;;6.96;100.00;101713.25;5143456;28;20058;-88
2023/01/31 10:30:21;;;;;;;5.13;1.33;;;7.10;99.90;;;6.99;100.00;101715.16;5136064;28;20058;-86
2023/01/31 10:33:00;;;;;;;5.20;1.92;;;7.10;99.90;;;6.98;100.00;101714.25;5138175;28;20547;-85
2023/01/31 10:35:40;;;;;;;5.25;1.48;;;7.10;99.90;;;7.01;100.00;101709.25;5132444;28;20142;-83
2023/01/31 10:38:18;;;;;;;9.15;1.80;;;7.10;99.90;;;7.02;100.00;101711.03;5133367;29;20039;-84
2023/01/31 10:40:56;;;;;;;5.07;1.40;;;7.10;99.90;;;7.05;100.00;101715.56;5178140;23;20042;-81
2023/01/31 10:43:39;;;;;;;4.15;1.30;;;7.10;99.90;;;7.09;100.00;101709.75;5133227;28;20122;-81
2023/01/31 10:46:13;;;;;;;5.53;1.30;;;7.20;99.90;;;7.11;100.00;101697.78;5118511;29;20393;-82
2023/01/31 10:48:49;;;;;;;6.30;1.55;;;7.20;99.90;;;7.15;100.00;101691.97;5096439;29;20054;-83
2023/01/31 10:51:41;;;;;;;4.63;1.20;;;7.20;99.90;;;7.21;100.00;101689.78;5110750;28;20113;-82
2023/01/31 10:54:30;;;;;;;6.20;1.85;;;7.30;99.90;;;7.21;100.00;101675.91;5125823;28;20510;-85
2023/01/31 10:57:03;;;;;;;5.50;1.50;;;7.30;99.90;;;7.23;100.00;101670.00;5143281;28;20123;-84
2023/01/31 10:59:39;;;;;;;6.40;1.85;;;7.30;99.90;;;7.25;100.00;101670.13;5158376;28;20059;-82
2023/01/31 11:02:20;;;;;;;5.82;1.23;;;7.30;99.90;;;7.26;100.00;101670.22;5142334;28;20137;-80